Terminal Aerodrome Forecast
Issued by NWS Cleveland, OH

Home | Current Version | Previous Version | Graphics & Text | Print | Product List | Glossary On
Versions: 1 2 3 4 5 6 7 8 9 10 11 12 13 14 15 16 17 18
000
FTUS41 KCLE 221700
TAFCAK
TAF
KCAK 221737Z 2218/2318 28015G25KT P6SM VCSH BKN035 OVC050
      TEMPO 2218/2220 28015KT BKN028 OVC045
     FM230000 26010KT P6SM BKN040
     FM230800 27012KT P6SM BKN028 OVC035
     FM231400 29014G22KT P6SM BKN035=

USA.gov is the U.S. government's official web portal to all federal, state and local government web resources and services.